createdAt,value
2018-09-18T00:00:14.535Z,1009.27
2018-09-18T00:01:23.190Z,1009.32
2018-09-18T00:02:31.839Z,1009.29
2018-09-18T00:03:40.754Z,1009.27
2018-09-18T00:04:49.654Z,1009.26
2018-09-18T00:05:58.299Z,1009.29
2018-09-18T00:07:07.203Z,1009.24
2018-09-18T00:08:16.114Z,1009.26
2018-09-18T00:09:25.288Z,1009.25
2018-09-18T00:10:33.923Z,1009.25
2018-09-18T00:11:42.572Z,1009.24
2018-09-18T00:12:51.212Z,1009.21
2018-09-18T00:13:59.869Z,1009.15
2018-09-18T00:15:08.502Z,1009.17
2018-09-18T00:16:17.151Z,1009.15
2018-09-18T00:17:25.792Z,1009.12
2018-09-18T00:18:34.446Z,1009.11
2018-09-18T00:19:43.085Z,1009.11
2018-09-18T00:20:51.994Z,1009.14
2018-09-18T00:22:00.635Z,1009.07
2018-09-18T00:23:09.290Z,1009.09
2018-09-18T00:24:17.933Z,1009.09
2018-09-18T00:25:26.570Z,1009.1
2018-09-18T00:26:35.212Z,1009.06
2018-09-18T00:27:44.117Z,1009.1
2018-09-18T00:28:52.770Z,1009.05
2018-09-18T00:30:01.416Z,1009.06
2018-09-18T00:31:10.332Z,1009.03
2018-09-18T00:32:18.965Z,1009.07
2018-09-18T00:33:27.886Z,1009.05
2018-09-18T00:34:36.525Z,1009.06
2018-09-18T00:35:45.173Z,1009.06
2018-09-18T00:36:53.808Z,1009.06
2018-09-18T00:38:02.462Z,1009.05
2018-09-18T00:39:11.104Z,1009.04
2018-09-18T00:40:19.752Z,1009
2018-09-18T00:41:28.388Z,1009.01
2018-09-18T00:42:37.036Z,1009.02
2018-09-18T00:43:45.688Z,1009.01
2018-09-18T00:44:54.334Z,1008.97
2018-09-18T00:46:02.979Z,1008.95
2018-09-18T00:47:11.615Z,1008.95
2018-09-18T00:48:20.264Z,1008.95
2018-09-18T00:49:28.913Z,1008.92
2018-09-18T00:50:37.546Z,1008.93
2018-09-18T00:51:46.199Z,1008.91
2018-09-18T00:52:54.840Z,1008.92
2018-09-18T00:54:03.492Z,1008.9
2018-09-18T00:55:12.125Z,1008.88
2018-09-18T00:56:20.779Z,1008.86
2018-09-18T00:57:29.421Z,1008.85
2018-09-18T00:58:38.070Z,1008.91
2018-09-18T00:59:46.704Z,1008.86
2018-09-18T01:00:55.349Z,1008.83
2018-09-18T01:02:03.999Z,1008.82
2018-09-18T01:03:12.910Z,1008.8
2018-09-18T01:04:21.557Z,1008.79
2018-09-18T01:05:30.192Z,1008.78
2018-09-18T01:06:38.846Z,1008.76
2018-09-18T01:07:47.749Z,1008.77
2018-09-18T01:08:56.401Z,1008.78
2018-09-18T01:10:07.147Z,1008.77
2018-09-18T01:11:15.797Z,1008.78
2018-09-18T01:12:24.437Z,1008.78
2018-09-18T01:13:33.088Z,1008.73
2018-09-18T01:14:41.745Z,1008.69
2018-09-18T01:15:50.370Z,1008.71
2018-09-18T01:16:59.013Z,1008.69
2018-09-18T01:18:07.662Z,1008.68
2018-09-18T01:19:16.304Z,1008.67
2018-09-18T01:20:24.945Z,1008.69
2018-09-18T01:21:33.586Z,1008.67
2018-09-18T01:22:42.230Z,1008.65
2018-09-18T01:23:50.881Z,1008.62
2018-09-18T01:24:59.529Z,1008.63
2018-09-18T01:26:08.444Z,1008.61
2018-09-18T01:27:17.080Z,1008.62
2018-09-18T01:28:25.732Z,1008.64
2018-09-18T01:29:34.368Z,1008.64
2018-09-18T01:30:43.019Z,1008.65
2018-09-18T01:31:51.656Z,1008.64
2018-09-18T01:33:00.310Z,1008.64
2018-09-18T01:34:08.952Z,1008.65
2018-09-18T01:35:17.598Z,1008.65
2018-09-18T01:36:26.232Z,1008.62
2018-09-18T01:37:34.879Z,1008.59
2018-09-18T01:38:43.794Z,1008.62
2018-09-18T01:39:52.438Z,1008.67
2018-09-18T01:41:01.346Z,1008.64
2018-09-18T01:42:09.983Z,1008.63
2018-09-18T01:43:18.632Z,1008.63
2018-09-18T01:44:27.278Z,1008.61
2018-09-18T01:45:35.931Z,1008.61
2018-09-18T01:46:44.567Z,1008.59
2018-09-18T01:47:53.216Z,1008.6
2018-09-18T01:49:01.861Z,1008.6
2018-09-18T01:50:10.508Z,1008.59
2018-09-18T01:51:19.148Z,1008.56
2018-09-18T01:52:27.796Z,1008.57
2018-09-18T01:53:36.698Z,1008.52
2018-09-18T01:54:45.351Z,1008.55
2018-09-18T01:55:53.997Z,1008.52
2018-09-18T01:57:02.640Z,1008.49
2018-09-18T01:58:11.282Z,1008.51
2018-09-18T01:59:19.927Z,1008.5
2018-09-18T02:00:28.576Z,1008.49
2018-09-18T02:01:37.746Z,1008.45
2018-09-18T02:02:46.395Z,1008.45
2018-09-18T02:03:55.031Z,1008.48
2018-09-18T02:05:03.680Z,1008.46
2018-09-18T02:06:12.324Z,1008.43
2018-09-18T02:07:20.972Z,1008.46
2018-09-18T02:08:29.875Z,1008.44
2018-09-18T02:09:38.519Z,1008.45
2018-09-18T02:10:47.161Z,1008.45
2018-09-18T02:11:55.811Z,1008.43
2018-09-18T02:13:04.452Z,1008.45
2018-09-18T02:14:13.101Z,1008.43
2018-09-18T02:15:22.272Z,1008.45
2018-09-18T02:16:30.917Z,1008.45
2018-09-18T02:17:39.564Z,1008.43
2018-09-18T02:18:48.202Z,1008.44
2018-09-18T02:19:56.848Z,1008.42
2018-09-18T02:21:05.492Z,1008.45
2018-09-18T02:22:14.141Z,1008.43
2018-09-18T02:23:22.781Z,1008.41
2018-09-18T02:24:31.428Z,1008.42
2018-09-18T02:25:40.070Z,1008.39
2018-09-18T02:26:48.720Z,1008.42
2018-09-18T02:27:57.359Z,1008.39
2018-09-18T02:29:06.006Z,1008.4
2018-09-18T02:30:14.648Z,1008.38
2018-09-18T02:31:23.573Z,1008.36
2018-09-18T02:32:32.221Z,1008.35
2018-09-18T02:33:41.134Z,1008.36
2018-09-18T02:34:49.775Z,1008.35
2018-09-18T02:35:58.427Z,1008.34
2018-09-18T02:37:07.076Z,1008.35
2018-09-18T02:38:15.989Z,1008.31
2018-09-18T02:39:24.908Z,1008.34
2018-09-18T02:40:33.547Z,1008.31
2018-09-18T02:41:42.460Z,1008.26
2018-09-18T02:42:51.108Z,1008.3
2018-09-18T02:44:00.019Z,1008.29
2018-09-18T02:45:08.924Z,1008.28
2018-09-18T02:46:17.578Z,1008.25
2018-09-18T02:47:26.226Z,1008.25
2018-09-18T02:48:35.130Z,1008.22
2018-09-18T02:49:44.027Z,1008.24
2018-09-18T02:50:52.676Z,1008.21
2018-09-18T02:52:01.324Z,1008.26
2018-09-18T02:53:10.235Z,1008.21
2018-09-18T02:54:18.886Z,1008.21
2018-09-18T02:55:27.785Z,1008.25
2018-09-18T02:56:36.437Z,1008.22
2018-09-18T02:57:45.082Z,1008.21
2018-09-18T02:58:53.736Z,1008.18
2018-09-18T03:00:02.637Z,1008.2
2018-09-18T03:01:11.287Z,1008.15
2018-09-18T03:02:19.927Z,1008.19
2018-09-18T03:03:28.583Z,1008.14
2018-09-18T03:04:37.220Z,1008.14
2018-09-18T03:05:46.142Z,1008.17
2018-09-18T03:06:54.787Z,1008.16
2018-09-18T03:08:03.438Z,1008.15
2018-09-18T03:09:12.081Z,1008.1
2018-09-18T03:10:20.719Z,1008.12
2018-09-18T03:11:29.445Z,1008.11
2018-09-18T03:12:38.278Z,1008.08
2018-09-18T03:13:46.932Z,1008.09
2018-09-18T03:14:55.574Z,1008.07
2018-09-18T03:16:04.224Z,1008.07
2018-09-18T03:17:12.861Z,1008.09
2018-09-18T03:18:22.042Z,1008.06
2018-09-18T03:19:30.940Z,1008.05
2018-09-18T03:20:39.589Z,1008.05
2018-09-18T03:21:48.233Z,1008.03
2018-09-18T03:22:56.884Z,1008.03
2018-09-18T03:24:05.521Z,1008.05
2018-09-18T03:25:14.166Z,1008.06
2018-09-18T03:26:22.800Z,1008.05
2018-09-18T03:27:31.538Z,1008.01
2018-09-18T03:28:40.095Z,1008.01
2018-09-18T03:29:48.735Z,1008
2018-09-18T03:30:57.653Z,1007.98
2018-09-18T03:32:07.105Z,1008
2018-09-18T03:33:16.039Z,1007.94
2018-09-18T03:34:24.670Z,1007.92
2018-09-18T03:35:33.338Z,1007.98
2018-09-18T03:36:41.957Z,1007.94
2018-09-18T03:37:50.880Z,1007.93
2018-09-18T03:38:59.521Z,1007.92
2018-09-18T03:40:08.178Z,1007.94
2018-09-18T03:41:16.810Z,1007.94
2018-09-18T03:42:25.466Z,1007.91
2018-09-18T03:43:34.105Z,1007.89
2018-09-18T03:44:42.752Z,1007.89
2018-09-18T03:45:51.393Z,1007.87
2018-09-18T03:47:00.038Z,1007.86
2018-09-18T03:48:08.937Z,1007.83
2018-09-18T03:49:17.572Z,1007.82
2018-09-18T03:50:26.219Z,1007.78
2018-09-18T03:51:34.867Z,1007.8
2018-09-18T03:52:43.514Z,1007.81
2018-09-18T03:53:52.153Z,1007.81
2018-09-18T03:55:01.081Z,1007.8
2018-09-18T03:56:09.997Z,1007.82
2018-09-18T03:57:18.644Z,1007.83
2018-09-18T03:58:27.553Z,1007.86
2018-09-18T03:59:36.203Z,1007.84
2018-09-18T04:00:45.106Z,1007.86
2018-09-18T04:01:53.755Z,1007.85
2018-09-18T04:03:02.398Z,1007.81
2018-09-18T04:04:11.046Z,1007.82
2018-09-18T04:05:19.689Z,1007.77
2018-09-18T04:06:28.342Z,1007.8
2018-09-18T04:07:36.986Z,1007.78
2018-09-18T04:08:45.628Z,1007.77
2018-09-18T04:09:54.283Z,1007.79
2018-09-18T04:11:02.918Z,1007.76
2018-09-18T04:12:11.568Z,1007.74
2018-09-18T04:13:20.215Z,1007.76
2018-09-18T04:14:28.860Z,1007.76
2018-09-18T04:15:37.774Z,1007.72
2018-09-18T04:16:46.422Z,1007.73
2018-09-18T04:17:55.065Z,1007.68
2018-09-18T04:19:03.709Z,1007.68
2018-09-18T04:20:12.353Z,1007.7
2018-09-18T04:21:21.002Z,1007.66
2018-09-18T04:22:29.904Z,1007.63
2018-09-18T04:23:38.548Z,1007.66
2018-09-18T04:24:47.193Z,1007.6
2018-09-18T04:25:56.362Z,1007.61
2018-09-18T04:27:05.013Z,1007.59
2018-09-18T04:28:13.916Z,1007.62
2018-09-18T04:29:22.560Z,1007.59
2018-09-18T04:30:31.203Z,1007.62
2018-09-18T04:31:39.851Z,1007.6
2018-09-18T04:32:48.502Z,1007.64
2018-09-18T04:33:57.142Z,1007.63
2018-09-18T04:35:05.795Z,1007.6
2018-09-18T04:36:14.708Z,1007.59
2018-09-18T04:37:23.351Z,1007.57
2018-09-18T04:38:32.262Z,1007.56
2018-09-18T04:39:41.174Z,1007.52
2018-09-18T04:40:49.819Z,1007.54
2018-09-18T04:41:58.727Z,1007.56
2018-09-18T04:43:07.372Z,1007.5
2018-09-18T04:44:16.021Z,1007.53
2018-09-18T04:45:24.665Z,1007.56
2018-09-18T04:46:33.567Z,1007.53
2018-09-18T04:47:42.214Z,1007.53
2018-09-18T04:48:50.853Z,1007.51
2018-09-18T04:49:59.508Z,1007.56
2018-09-18T04:51:08.433Z,1007.54
2018-09-18T04:52:17.069Z,1007.56
2018-09-18T04:53:25.986Z,1007.54
2018-09-18T04:54:34.634Z,1007.55
2018-09-18T04:55:43.544Z,1007.55
2018-09-18T04:56:52.460Z,1007.56
2018-09-18T04:58:01.103Z,1007.58
2018-09-18T04:59:09.749Z,1007.57
2018-09-18T05:00:18.396Z,1007.56
2018-09-18T05:01:27.307Z,1007.54
2018-09-18T05:02:35.956Z,1007.54
2018-09-18T05:03:44.598Z,1007.52
2018-09-18T05:04:53.255Z,1007.51
2018-09-18T05:06:01.901Z,1007.5
2018-09-18T05:07:10.549Z,1007.5
2018-09-18T05:08:19.186Z,1007.46
2018-09-18T05:09:27.972Z,1007.46
2018-09-18T05:10:36.491Z,1007.45
2018-09-18T05:11:45.182Z,1007.43
2018-09-18T05:12:53.811Z,1007.45
2018-09-18T05:14:02.490Z,1007.47
2018-09-18T05:15:11.799Z,1007.45
2018-09-18T05:16:20.717Z,1007.44
2018-09-18T05:17:29.358Z,1007.45
2018-09-18T05:18:38.010Z,1007.44
2018-09-18T05:19:46.651Z,1007.42
2018-09-18T05:20:55.293Z,1007.41
2018-09-18T05:22:04.208Z,1007.4
2018-09-18T05:23:12.850Z,1007.37
2018-09-18T05:24:21.495Z,1007.38
2018-09-18T05:25:30.455Z,1007.4
2018-09-18T05:26:39.437Z,1007.39
2018-09-18T05:27:48.083Z,1007.38
2018-09-18T05:28:56.994Z,1007.34
2018-09-18T05:30:05.630Z,1007.39
2018-09-18T05:31:14.276Z,1007.35
2018-09-18T05:32:22.917Z,1007.31
2018-09-18T05:33:31.593Z,1007.37
2018-09-18T05:34:40.203Z,1007.37
2018-09-18T05:35:48.851Z,1007.42
2018-09-18T05:36:57.496Z,1007.4
2018-09-18T05:38:06.402Z,1007.44
2018-09-18T05:39:15.048Z,1007.41
2018-09-18T05:40:23.686Z,1007.39
2018-09-18T05:41:32.331Z,1007.38
2018-09-18T05:42:40.970Z,1007.41
2018-09-18T05:43:49.623Z,1007.4
2018-09-18T05:44:58.516Z,1007.41
2018-09-18T05:46:07.162Z,1007.41
2018-09-18T05:47:16.069Z,1007.38
2018-09-18T05:48:24.722Z,1007.38
2018-09-18T05:49:33.357Z,1007.38
2018-09-18T05:50:42.000Z,1007.36
2018-09-18T05:51:50.904Z,1007.36
2018-09-18T05:52:59.554Z,1007.38
2018-09-18T05:54:08.195Z,1007.38
2018-09-18T05:55:16.833Z,1007.4
2018-09-18T05:56:25.475Z,1007.4
2018-09-18T05:57:34.115Z,1007.39
2018-09-18T05:58:42.769Z,1007.41
2018-09-18T05:59:51.406Z,1007.4
2018-09-18T06:01:00.059Z,1007.4
2018-09-18T06:02:08.752Z,1007.35
2018-09-18T06:03:17.347Z,1007.39
2018-09-18T06:04:25.986Z,1007.39
2018-09-18T06:05:34.642Z,1007.33
2018-09-18T06:06:43.539Z,1007.33
2018-09-18T06:07:52.192Z,1007.35
2018-09-18T06:09:01.370Z,1007.32
2018-09-18T06:10:10.018Z,1007.3
2018-09-18T06:11:18.652Z,1007.27
2018-09-18T06:12:27.341Z,1007.27
2018-09-18T06:13:36.369Z,1007.27
2018-09-18T06:14:45.016Z,1007.27
2018-09-18T06:15:53.665Z,1007.22
2018-09-18T06:17:02.306Z,1007.27
2018-09-18T06:18:10.954Z,1007.24
2018-09-18T06:19:19.720Z,1007.25
2018-09-18T06:20:28.245Z,1007.23
2018-09-18T06:21:36.880Z,1007.2
2018-09-18T06:22:45.527Z,1007.22
2018-09-18T06:23:54.430Z,1007.26
2018-09-18T06:25:03.083Z,1007.26
2018-09-18T06:26:11.776Z,1007.27
2018-09-18T06:27:20.364Z,1007.26
2018-09-18T06:28:29.010Z,1007.25
2018-09-18T06:29:37.664Z,1007.24
2018-09-18T06:30:46.306Z,1007.26
2018-09-18T06:31:54.944Z,1007.18
2018-09-18T06:33:03.584Z,1007.22
2018-09-18T06:34:12.226Z,1007.22
2018-09-18T06:35:20.878Z,1007.2
2018-09-18T06:36:29.521Z,1007.2
2018-09-18T06:37:38.425Z,1007.2
2018-09-18T06:38:47.058Z,1007.22
2018-09-18T06:39:55.704Z,1007.29
2018-09-18T06:41:04.350Z,1007.29
2018-09-18T06:42:13.053Z,1007.31
2018-09-18T06:43:22.023Z,1007.33
2018-09-18T06:44:30.661Z,1007.36
2018-09-18T06:45:39.307Z,1007.38
2018-09-18T06:46:47.948Z,1007.38
2018-09-18T06:47:57.223Z,1007.39
2018-09-18T06:49:06.627Z,1007.37
2018-09-18T06:50:15.548Z,1007.38
2018-09-18T06:51:24.188Z,1007.41
2018-09-18T06:52:32.830Z,1007.41
2018-09-18T06:53:41.762Z,1007.4
2018-09-18T06:54:50.405Z,1007.4
2018-09-18T06:55:59.051Z,1007.41
2018-09-18T06:57:07.695Z,1007.37
2018-09-18T06:58:16.341Z,1007.34
2018-09-18T06:59:24.989Z,1007.35
2018-09-18T07:00:33.632Z,1007.34
2018-09-18T07:01:42.274Z,1007.35
2018-09-18T07:02:50.925Z,1007.3
2018-09-18T07:03:59.567Z,1007.3
2018-09-18T07:05:08.216Z,1007.34
2018-09-18T07:06:16.855Z,1007.31
2018-09-18T07:07:25.764Z,1007.29
2018-09-18T07:08:34.677Z,1007.32
2018-09-18T07:09:43.860Z,1007.31
2018-09-18T07:10:52.504Z,1007.29
2018-09-18T07:12:01.185Z,1007.3
2018-09-18T07:13:09.829Z,1007.31
2018-09-18T07:14:18.476Z,1007.32
2018-09-18T07:15:27.400Z,1007.31
2018-09-18T07:16:36.036Z,1007.3
2018-09-18T07:17:44.681Z,1007.29
2018-09-18T07:18:53.322Z,1007.28
2018-09-18T07:20:01.972Z,1007.27
2018-09-18T07:21:10.616Z,1007.31
2018-09-18T07:22:19.264Z,1007.24
2018-09-18T07:23:27.907Z,1007.26
2018-09-18T07:24:36.564Z,1007.25
2018-09-18T07:25:45.508Z,1007.28
2018-09-18T07:26:54.158Z,1007.26
2018-09-18T07:28:02.797Z,1007.29
2018-09-18T07:29:11.486Z,1007.31
2018-09-18T07:30:20.093Z,1007.31
2018-09-18T07:31:28.739Z,1007.31
2018-09-18T07:32:37.384Z,1007.32
2018-09-18T07:33:46.329Z,1007.35
2018-09-18T07:34:54.945Z,1007.32
2018-09-18T07:36:03.638Z,1007.33
2018-09-18T07:37:12.237Z,1007.33
2018-09-18T07:38:20.880Z,1007.32
2018-09-18T07:39:29.799Z,1007.32
2018-09-18T07:40:38.441Z,1007.31
2018-09-18T07:41:47.089Z,1007.29
2018-09-18T07:42:55.729Z,1007.31
2018-09-18T07:44:04.380Z,1007.32
2018-09-18T07:45:13.289Z,1007.31
2018-09-18T07:46:21.937Z,1007.28
2018-09-18T07:47:31.118Z,1007.24
2018-09-18T07:48:39.756Z,1007.28
2018-09-18T07:49:48.677Z,1007.25
2018-09-18T07:50:57.317Z,1007.27
2018-09-18T07:52:06.009Z,1007.21
2018-09-18T07:53:14.615Z,1007.22
2018-09-18T07:54:23.267Z,1007.19
2018-09-18T07:55:31.910Z,1007.24
2018-09-18T07:56:40.826Z,1007.23
2018-09-18T07:57:49.463Z,1007.2
2018-09-18T07:58:58.113Z,1007.25
2018-09-18T08:00:07.020Z,1007.22
2018-09-18T08:01:15.679Z,1007.2
2018-09-18T08:02:24.323Z,1007.16
2018-09-18T08:03:32.965Z,1007.16
2018-09-18T08:04:41.609Z,1007.14
2018-09-18T08:05:50.259Z,1007.11
2018-09-18T08:06:58.908Z,1007.11
2018-09-18T08:08:07.809Z,1007.12
2018-09-18T08:09:16.461Z,1007.14
2018-09-18T08:10:25.363Z,1007.08
2018-09-18T08:11:34.019Z,1007.06
2018-09-18T08:12:42.662Z,1007.08
2018-09-18T08:13:51.314Z,1007.04
2018-09-18T08:15:00.216Z,1007.04
2018-09-18T08:16:09.138Z,1007
2018-09-18T08:17:17.784Z,1007.02
2018-09-18T08:18:26.434Z,1007.01
2018-09-18T08:19:35.230Z,1006.98
2018-09-18T08:20:43.719Z,1007
2018-09-18T08:21:52.424Z,1006.95
2018-09-18T08:23:01.025Z,1006.95
2018-09-18T08:24:09.677Z,1006.93
2018-09-18T08:25:18.423Z,1006.92
2018-09-18T08:26:26.966Z,1006.91
2018-09-18T08:27:35.609Z,1006.91
2018-09-18T08:28:44.267Z,1006.91
2018-09-18T08:29:52.905Z,1006.93
2018-09-18T08:31:01.560Z,1006.96
2018-09-18T08:32:10.467Z,1006.96
2018-09-18T08:33:19.126Z,1006.91
2018-09-18T08:34:27.766Z,1006.98
2018-09-18T08:35:36.420Z,1007
2018-09-18T08:36:45.074Z,1006.97
2018-09-18T08:37:53.976Z,1006.97
2018-09-18T08:39:02.641Z,1006.94
2018-09-18T08:40:11.405Z,1006.96
2018-09-18T08:41:20.217Z,1006.93
2018-09-18T08:42:29.174Z,1006.99
2018-09-18T08:43:37.833Z,1006.96
2018-09-18T08:44:46.468Z,1006.94
2018-09-18T08:45:55.378Z,1006.97
2018-09-18T08:47:04.036Z,1006.95
2018-09-18T08:48:12.675Z,1006.91
2018-09-18T08:49:21.333Z,1006.92
2018-09-18T08:50:29.975Z,1006.93
2018-09-18T08:51:38.681Z,1006.93
2018-09-18T08:52:47.990Z,1006.98
2018-09-18T08:53:56.646Z,1006.98
2018-09-18T08:55:05.293Z,1006.95
2018-09-18T08:56:13.978Z,1006.93
2018-09-18T08:57:22.870Z,1006.95
2018-09-18T08:58:31.780Z,1006.95
2018-09-18T08:59:40.722Z,1006.93
2018-09-18T09:00:49.368Z,1006.87
2018-09-18T09:01:58.057Z,1006.86
2018-09-18T09:03:06.681Z,1006.85
2018-09-18T09:04:15.780Z,1006.85
2018-09-18T09:05:24.399Z,1006.83
2018-09-18T09:06:33.352Z,1006.83
2018-09-18T09:07:42.459Z,1006.77
2018-09-18T09:08:51.613Z,1006.77
2018-09-18T09:10:00.147Z,1006.78
2018-09-18T09:11:08.735Z,1006.81
2018-09-18T09:12:17.387Z,1006.78
2018-09-18T09:13:26.307Z,1006.82
2018-09-18T09:14:35.032Z,1006.77
2018-09-18T09:15:43.599Z,1006.77
2018-09-18T09:16:52.253Z,1006.79
2018-09-18T09:18:01.023Z,1006.77
2018-09-18T09:19:09.560Z,1006.79
2018-09-18T09:20:18.200Z,1006.76
2018-09-18T09:21:27.230Z,1006.72
2018-09-18T09:22:35.801Z,1006.72
2018-09-18T09:23:44.450Z,1006.75
2018-09-18T09:24:53.096Z,1006.73
2018-09-18T09:26:01.755Z,1006.77
2018-09-18T09:27:10.697Z,1006.75
2018-09-18T09:28:19.379Z,1006.78
2018-09-18T09:29:27.997Z,1006.84
2018-09-18T09:30:36.646Z,1006.82
2018-09-18T09:31:45.299Z,1006.87
2018-09-18T09:32:53.989Z,1006.89
2018-09-18T09:34:02.652Z,1006.87
2018-09-18T09:35:11.562Z,1006.87
2018-09-18T09:36:20.207Z,1006.85
2018-09-18T09:37:28.867Z,1006.84
2018-09-18T09:38:37.516Z,1006.85
2018-09-18T09:39:46.508Z,1006.82
2018-09-18T09:40:55.425Z,1006.78
2018-09-18T09:42:04.071Z,1006.78
2018-09-18T09:43:12.741Z,1006.8
2018-09-18T09:44:21.378Z,1006.7
2018-09-18T09:45:30.030Z,1006.71
2018-09-18T09:46:38.947Z,1006.73
2018-09-18T09:47:47.603Z,1006.74
2018-09-18T09:48:56.514Z,1006.76
2018-09-18T09:50:05.168Z,1006.76
2018-09-18T09:51:14.185Z,1006.69
2018-09-18T09:52:22.742Z,1006.76
2018-09-18T09:53:31.394Z,1006.74
2018-09-18T09:54:40.039Z,1006.75
2018-09-18T09:55:48.694Z,1006.76
2018-09-18T09:56:57.445Z,1006.75
2018-09-18T09:58:05.999Z,1006.7
2018-09-18T09:59:14.643Z,1006.71
2018-09-18T10:00:23.302Z,1006.7
2018-09-18T10:01:31.950Z,1006.67
2018-09-18T10:02:40.606Z,1006.66
2018-09-18T10:03:49.293Z,1006.65
2018-09-18T10:04:58.296Z,1006.61
2018-09-18T10:06:06.944Z,1006.64
2018-09-18T10:07:15.596Z,1006.6
2018-09-18T10:08:24.246Z,1006.57
2018-09-18T10:09:32.904Z,1006.62
2018-09-18T10:10:41.877Z,1006.61
2018-09-18T10:11:51.049Z,1006.6
2018-09-18T10:12:59.717Z,1006.57
2018-09-18T10:14:08.630Z,1006.54
2018-09-18T10:15:17.349Z,1006.57
2018-09-18T10:16:26.316Z,1006.55
2018-09-18T10:17:35.019Z,1006.61
2018-09-18T10:18:43.617Z,1006.58
2018-09-18T10:19:52.279Z,1006.6
2018-09-18T10:21:00.929Z,1006.57
2018-09-18T10:22:09.581Z,1006.6
2018-09-18T10:23:18.243Z,1006.59
2018-09-18T10:24:26.905Z,1006.55
2018-09-18T10:25:35.566Z,1006.55
2018-09-18T10:26:44.211Z,1006.57
2018-09-18T10:27:53.275Z,1006.59
2018-09-18T10:29:01.935Z,1006.6
2018-09-18T10:30:10.582Z,1006.63
2018-09-18T10:31:19.257Z,1006.6
2018-09-18T10:32:27.933Z,1006.59
2018-09-18T10:33:36.552Z,1006.62
2018-09-18T10:34:45.190Z,1006.64
2018-09-18T10:35:54.135Z,1006.55
2018-09-18T10:37:03.329Z,1006.6
2018-09-18T10:38:11.980Z,1006.63
2018-09-18T10:39:20.918Z,1006.61
2018-09-18T10:40:29.568Z,1006.61
2018-09-18T10:41:38.311Z,1006.64
2018-09-18T10:42:46.962Z,1006.57
2018-09-18T10:43:55.528Z,1006.58
2018-09-18T10:45:04.184Z,1006.58
2018-09-18T10:46:13.150Z,1006.58
2018-09-18T10:47:21.807Z,1006.64
2018-09-18T10:48:30.464Z,1006.63
2018-09-18T10:49:39.100Z,1006.62
2018-09-18T10:50:47.748Z,1006.65
2018-09-18T10:51:56.410Z,1006.65
2018-09-18T10:53:05.057Z,1006.7
2018-09-18T10:54:13.714Z,1006.62
2018-09-18T10:55:22.365Z,1006.66
2018-09-18T10:56:31.412Z,1006.58
2018-09-18T10:57:40.064Z,1006.57
2018-09-18T10:58:49.061Z,1006.6
2018-09-18T10:59:57.720Z,1006.58
2018-09-18T11:01:06.375Z,1006.58
2018-09-18T11:02:15.524Z,1006.58
2018-09-18T11:03:23.981Z,1006.61
2018-09-18T11:04:32.707Z,1006.6
2018-09-18T11:05:41.371Z,1006.58
2018-09-18T11:06:50.109Z,1006.56
2018-09-18T11:07:59.405Z,1006.59
2018-09-18T11:09:09.552Z,1006.6
2018-09-18T11:10:19.901Z,1006.6
2018-09-18T11:11:29.366Z,1006.6
2018-09-18T11:12:38.685Z,1006.61
2018-09-18T11:13:47.352Z,1006.55
2018-09-18T11:14:56.096Z,1006.62
2018-09-18T11:16:05.066Z,1006.53
2018-09-18T11:17:14.039Z,1006.55
2018-09-18T11:18:22.768Z,1006.52
2018-09-18T11:19:32.347Z,1006.54
2018-09-18T11:20:42.126Z,1006.48
2018-09-18T11:21:51.760Z,1006.44
2018-09-18T11:23:01.451Z,1006.43
2018-09-18T11:24:11.395Z,1006.46
2018-09-18T11:25:23.002Z,1006.47
2018-09-18T11:26:33.060Z,1006.38
2018-09-18T11:27:42.255Z,1006.37
2018-09-18T11:28:53.147Z,1006.45
2018-09-18T11:30:02.521Z,1006.47
2018-09-18T11:31:12.533Z,1006.44
2018-09-18T11:32:22.063Z,1006.4
2018-09-18T11:33:31.752Z,1006.45
2018-09-18T11:34:41.831Z,1006.42
2018-09-18T11:35:50.931Z,1006.36
2018-09-18T11:37:00.261Z,1006.4
2018-09-18T11:38:09.673Z,1006.45
2018-09-18T11:39:19.773Z,1006.33
2018-09-18T11:40:29.235Z,1006.37
2018-09-18T11:41:38.685Z,1006.32
2018-09-18T11:42:48.046Z,1006.33
2018-09-18T11:43:57.672Z,1006.31
2018-09-18T11:45:06.901Z,1006.29
2018-09-18T11:46:16.409Z,1006.31
2018-09-18T11:47:25.809Z,1006.27
2018-09-18T11:48:35.399Z,1006.21
2018-09-18T11:49:47.311Z,1006.19
2018-09-18T11:50:57.088Z,1006.21
2018-09-18T11:52:06.943Z,1006.28
2018-09-18T11:53:16.761Z,1006.28
2018-09-18T11:54:26.669Z,1006.24
2018-09-18T11:55:36.528Z,1006.23
2018-09-18T11:56:46.142Z,1006.23
2018-09-18T11:57:55.270Z,1006.24
2018-09-18T11:59:05.408Z,1006.23
2018-09-18T12:00:15.042Z,1006.25
2018-09-18T12:01:24.806Z,1006.23
2018-09-18T12:02:34.427Z,1006.19
2018-09-18T12:03:43.723Z,1006.21
2018-09-18T12:04:54.113Z,1006.26
2018-09-18T12:06:03.824Z,1006.15
2018-09-18T12:07:13.256Z,1006.18
2018-09-18T12:08:22.752Z,1006.19
2018-09-18T12:09:32.240Z,1006.21
2018-09-18T12:10:41.998Z,1006.2
2018-09-18T12:11:52.130Z,1006.16
2018-09-18T12:13:01.512Z,1006.2
2018-09-18T12:14:11.121Z,1006.2
2018-09-18T12:15:20.715Z,1006.18
2018-09-18T12:16:30.775Z,1006.19
2018-09-18T12:17:39.923Z,1006.21
2018-09-18T12:18:49.903Z,1006.23
2018-09-18T12:20:00.577Z,1006.27
2018-09-18T12:21:10.511Z,1006.28
2018-09-18T12:22:20.108Z,1006.22
2018-09-18T12:23:29.457Z,1006.29
2018-09-18T12:24:38.106Z,1006.26
2018-09-18T12:25:46.761Z,1006.17
2018-09-18T12:26:55.691Z,1006.14
2018-09-18T12:28:04.617Z,1006.15
2018-09-18T12:29:13.264Z,1006.18
2018-09-18T12:30:21.916Z,1006.19
2018-09-18T12:31:30.572Z,1006.16
2018-09-18T12:32:39.224Z,1006.25
2018-09-18T12:33:47.883Z,1006.22
2018-09-18T12:34:56.534Z,1006.2
2018-09-18T12:36:05.190Z,1006.19
2018-09-18T12:37:13.839Z,1006.17
2018-09-18T12:38:22.496Z,1006.1
2018-09-18T12:39:31.160Z,1006.11
2018-09-18T12:40:40.339Z,1006.18
2018-09-18T12:41:49.087Z,1006.06
2018-09-18T12:42:57.655Z,1006.03
2018-09-18T12:44:06.307Z,1006.12
2018-09-18T12:45:14.965Z,1006.15
2018-09-18T12:46:23.618Z,1006.09
2018-09-18T12:47:32.530Z,1006.15
2018-09-18T12:48:41.217Z,1006.15
2018-09-18T12:49:50.631Z,1006.1
2018-09-18T12:50:59.135Z,1006.11
2018-09-18T12:52:08.187Z,1006.04
2018-09-18T12:53:16.842Z,1006.08
2018-09-18T12:54:25.493Z,1006.13
2018-09-18T12:55:34.150Z,1006.13
2018-09-18T12:56:42.810Z,1006.12
2018-09-18T12:57:51.456Z,1006.15
2018-09-18T12:59:00.220Z,1006.11
2018-09-18T13:00:09.301Z,1006.06
2018-09-18T13:01:17.895Z,1006.04
2018-09-18T13:02:26.687Z,1006.02
2018-09-18T13:03:35.209Z,1006.01
2018-09-18T13:04:43.870Z,1006.01
2018-09-18T13:05:52.801Z,1005.98
2018-09-18T13:07:01.518Z,1006
2018-09-18T13:08:10.204Z,1005.99
2018-09-18T13:09:18.783Z,1005.98
2018-09-18T13:10:27.443Z,1005.98
2018-09-18T13:11:36.097Z,1006
2018-09-18T13:12:44.776Z,1005.95
2018-09-18T13:13:53.441Z,1005.92
2018-09-18T13:15:02.060Z,1005.86
2018-09-18T13:16:10.730Z,1005.77
2018-09-18T13:17:19.481Z,1005.81
2018-09-18T13:18:28.377Z,1005.88
2018-09-18T13:19:37.029Z,1005.87
2018-09-18T13:20:45.679Z,1005.89
2018-09-18T13:21:54.704Z,1005.82
2018-09-18T13:23:03.363Z,1005.81
2018-09-18T13:24:12.008Z,1005.78
2018-09-18T13:25:20.664Z,1005.79
2018-09-18T13:26:29.587Z,1005.79
2018-09-18T13:27:38.561Z,1005.84
2018-09-18T13:28:47.165Z,1005.84
2018-09-18T13:29:55.828Z,1005.83
2018-09-18T13:31:05.093Z,1005.79
2018-09-18T13:32:13.720Z,1005.84
2018-09-18T13:33:22.367Z,1005.83
2018-09-18T13:34:31.021Z,1005.89
2018-09-18T13:35:39.671Z,1005.91
2018-09-18T13:36:48.323Z,1005.85
2018-09-18T13:37:56.988Z,1005.83
2018-09-18T13:39:05.639Z,1005.85
2018-09-18T13:40:14.298Z,1005.79
2018-09-18T13:41:23.131Z,1005.82
2018-09-18T13:42:31.883Z,1005.8
2018-09-18T13:43:40.535Z,1005.77
2018-09-18T13:44:49.197Z,1005.71
2018-09-18T13:45:57.844Z,1005.75
2018-09-18T13:47:06.508Z,1005.8
2018-09-18T13:48:15.164Z,1005.78
2018-09-18T13:49:23.821Z,1005.76
2018-09-18T13:50:32.466Z,1005.74
2018-09-18T13:51:41.161Z,1005.75
2018-09-18T13:52:49.783Z,1005.68
2018-09-18T13:53:58.703Z,1005.72
2018-09-18T13:55:07.359Z,1005.73